sensor_id;sensor_type;location;lat;lon;timestamp;temperature;humidity
48551;DHT22;34397;51.176;6.738;2023-10-19T00:00:17;12.00;73.00
48551;DHT22;34397;51.176;6.738;2023-10-19T00:02:52;12.00;73.30
48551;DHT22;34397;51.176;6.738;2023-10-19T00:05:24;12.10;73.30
48551;DHT22;34397;51.176;6.738;2023-10-19T00:07:57;12.00;73.50
48551;DHT22;34397;51.176;6.738;2023-10-19T00:10:28;12.00;73.50
48551;DHT22;34397;51.176;6.738;2023-10-19T00:13:05;12.00;73.40
48551;DHT22;34397;51.176;6.738;2023-10-19T00:15:40;12.10;73.50
48551;DHT22;34397;51.176;6.738;2023-10-19T00:18:19;12.10;73.80
48551;DHT22;34397;51.176;6.738;2023-10-19T00:20:56;12.10;73.40
48551;DHT22;34397;51.176;6.738;2023-10-19T00:23:30;12.10;73.60
48551;DHT22;34397;51.176;6.738;2023-10-19T00:26:02;12.10;73.40
48551;DHT22;34397;51.176;6.738;2023-10-19T00:28:39;12.20;72.40
48551;DHT22;34397;51.176;6.738;2023-10-19T00:31:10;12.20;73.60
48551;DHT22;34397;51.176;6.738;2023-10-19T00:33:42;12.10;73.80
48551;DHT22;34397;51.176;6.738;2023-10-19T00:36:15;12.10;73.70
48551;DHT22;34397;51.176;6.738;2023-10-19T00:38:50;12.10;74.00
48551;DHT22;34397;51.176;6.738;2023-10-19T00:41:25;12.10;74.00
48551;DHT22;34397;51.176;6.738;2023-10-19T00:43:59;12.20;74.40
48551;DHT22;34397;51.176;6.738;2023-10-19T00:46:41;12.20;74.50
48551;DHT22;34397;51.176;6.738;2023-10-19T00:49:20;12.20;74.10
48551;DHT22;34397;51.176;6.738;2023-10-19T00:51:58;12.20;74.30
48551;DHT22;34397;51.176;6.738;2023-10-19T00:54:34;12.30;74.80
48551;DHT22;34397;51.176;6.738;2023-10-19T00:57:10;12.30;74.30
48551;DHT22;34397;51.176;6.738;2023-10-19T00:59:42;12.30;74.10
48551;DHT22;34397;51.176;6.738;2023-10-19T01:02:18;12.30;72.90
48551;DHT22;34397;51.176;6.738;2023-10-19T01:04:53;12.30;74.10
48551;DHT22;34397;51.176;6.738;2023-10-19T01:07:31;12.30;74.40
48551;DHT22;34397;51.176;6.738;2023-10-19T01:10:09;12.30;74.60
48551;DHT22;34397;51.176;6.738;2023-10-19T01:12:42;12.40;74.50
48551;DHT22;34397;51.176;6.738;2023-10-19T01:15:15;12.30;74.30
48551;DHT22;34397;51.176;6.738;2023-10-19T01:17:49;12.30;74.50
48551;DHT22;34397;51.176;6.738;2023-10-19T01:20:24;12.40;74.80
48551;DHT22;34397;51.176;6.738;2023-10-19T01:23:19;12.30;74.80
48551;DHT22;34397;51.176;6.738;2023-10-19T01:25:56;12.40;75.00
48551;DHT22;34397;51.176;6.738;2023-10-19T01:28:35;12.40;75.00
48551;DHT22;34397;51.176;6.738;2023-10-19T01:31:15;12.40;75.00
48551;DHT22;34397;51.176;6.738;2023-10-19T01:33:53;12.30;74.90
48551;DHT22;34397;51.176;6.738;2023-10-19T01:36:27;12.30;74.80
48551;DHT22;34397;51.176;6.738;2023-10-19T01:39:04;12.40;74.60
48551;DHT22;34397;51.176;6.738;2023-10-19T01:41:41;12.40;74.90
48551;DHT22;34397;51.176;6.738;2023-10-19T01:44:13;12.40;75.00
48551;DHT22;34397;51.176;6.738;2023-10-19T01:46:45;12.40;75.20
48551;DHT22;34397;51.176;6.738;2023-10-19T01:49:19;12.40;74.30
48551;DHT22;34397;51.176;6.738;2023-10-19T01:51:56;12.40;74.70
48551;DHT22;34397;51.176;6.738;2023-10-19T01:54:29;12.40;75.10
48551;DHT22;34397;51.176;6.738;2023-10-19T01:57:00;12.40;75.80
48551;DHT22;34397;51.176;6.738;2023-10-19T01:59:33;12.40;75.60
48551;DHT22;34397;51.176;6.738;2023-10-19T02:02:05;12.40;75.50
48551;DHT22;34397;51.176;6.738;2023-10-19T02:04:40;12.40;75.80
48551;DHT22;34397;51.176;6.738;2023-10-19T02:07:11;12.40;75.70
48551;DHT22;34397;51.176;6.738;2023-10-19T02:09:49;12.40;75.80
48551;DHT22;34397;51.176;6.738;2023-10-19T02:12:21;12.40;76.30
48551;DHT22;34397;51.176;6.738;2023-10-19T02:14:54;12.50;76.40
48551;DHT22;34397;51.176;6.738;2023-10-19T02:17:25;12.40;76.40
48551;DHT22;34397;51.176;6.738;2023-10-19T02:19:56;12.50;77.10
48551;DHT22;34397;51.176;6.738;2023-10-19T02:22:28;12.50;77.50
48551;DHT22;34397;51.176;6.738;2023-10-19T02:25:02;12.50;76.80
48551;DHT22;34397;51.176;6.738;2023-10-19T02:27:35;12.50;77.00
48551;DHT22;34397;51.176;6.738;2023-10-19T02:30:08;12.60;76.90
48551;DHT22;34397;51.176;6.738;2023-10-19T02:32:42;12.60;75.50
48551;DHT22;34397;51.176;6.738;2023-10-19T02:46:33;12.70;76.80
48551;DHT22;34397;51.176;6.738;2023-10-19T02:49:11;12.70;76.40
48551;DHT22;34397;51.176;6.738;2023-10-19T02:51:44;12.70;76.70
48551;DHT22;34397;51.176;6.738;2023-10-19T02:54:18;12.70;76.70
48551;DHT22;34397;51.176;6.738;2023-10-19T02:56:51;12.70;76.80
48551;DHT22;34397;51.176;6.738;2023-10-19T02:59:25;12.70;76.90
48551;DHT22;34397;51.176;6.738;2023-10-19T03:02:01;12.70;76.80
48551;DHT22;34397;51.176;6.738;2023-10-19T03:04:37;12.70;77.00
48551;DHT22;34397;51.176;6.738;2023-10-19T03:07:10;12.70;76.80
48551;DHT22;34397;51.176;6.738;2023-10-19T03:09:42;12.70;76.90
48551;DHT22;34397;51.176;6.738;2023-10-19T03:12:20;12.80;75.90
48551;DHT22;34397;51.176;6.738;2023-10-19T03:14:51;12.80;76.50
48551;DHT22;34397;51.176;6.738;2023-10-19T03:17:24;12.80;76.70
48551;DHT22;34397;51.176;6.738;2023-10-19T03:19:55;12.70;76.90
48551;DHT22;34397;51.176;6.738;2023-10-19T03:22:27;12.70;76.80
48551;DHT22;34397;51.176;6.738;2023-10-19T03:25:00;12.70;77.00
48551;DHT22;34397;51.176;6.738;2023-10-19T03:27:54;12.70;77.40
48551;DHT22;34397;51.176;6.738;2023-10-19T03:30:26;12.70;77.90
48551;DHT22;34397;51.176;6.738;2023-10-19T03:32:59;12.70;77.90
48551;DHT22;34397;51.176;6.738;2023-10-19T03:35:31;12.70;78.00
48551;DHT22;34397;51.176;6.738;2023-10-19T03:38:05;12.70;77.70
48551;DHT22;34397;51.176;6.738;2023-10-19T03:40:45;12.70;77.60
48551;DHT22;34397;51.176;6.738;2023-10-19T03:43:22;12.80;77.70
48551;DHT22;34397;51.176;6.738;2023-10-19T03:45:57;12.70;77.50
48551;DHT22;34397;51.176;6.738;2023-10-19T03:48:36;12.80;77.70
48551;DHT22;34397;51.176;6.738;2023-10-19T03:51:09;12.80;78.00
48551;DHT22;34397;51.176;6.738;2023-10-19T03:53:44;12.80;78.00
48551;DHT22;34397;51.176;6.738;2023-10-19T03:56:24;12.80;78.30
48551;DHT22;34397;51.176;6.738;2023-10-19T03:58:56;12.80;78.30
48551;DHT22;34397;51.176;6.738;2023-10-19T04:01:29;12.80;78.30
48551;DHT22;34397;51.176;6.738;2023-10-19T04:04:03;12.80;78.30
48551;DHT22;34397;51.176;6.738;2023-10-19T04:06:39;12.80;78.70
48551;DHT22;34397;51.176;6.738;2023-10-19T04:09:15;12.80;78.60
48551;DHT22;34397;51.176;6.738;2023-10-19T04:11:49;12.80;78.10
48551;DHT22;34397;51.176;6.738;2023-10-19T04:14:21;12.90;78.60
48551;DHT22;34397;51.176;6.738;2023-10-19T04:16:53;12.90;78.50
48551;DHT22;34397;51.176;6.738;2023-10-19T04:19:27;12.90;78.30
48551;DHT22;34397;51.176;6.738;2023-10-19T04:21:59;12.90;78.40
48551;DHT22;34397;51.176;6.738;2023-10-19T04:24:31;12.90;78.00
48551;DHT22;34397;51.176;6.738;2023-10-19T04:27:03;12.90;77.80
48551;DHT22;34397;51.176;6.738;2023-10-19T04:29:37;12.80;77.70
48551;DHT22;34397;51.176;6.738;2023-10-19T04:32:11;12.80;78.00
48551;DHT22;34397;51.176;6.738;2023-10-19T04:34:46;12.80;78.00
48551;DHT22;34397;51.176;6.738;2023-10-19T04:37:18;12.80;78.30
48551;DHT22;34397;51.176;6.738;2023-10-19T04:39:50;12.80;78.20
48551;DHT22;34397;51.176;6.738;2023-10-19T04:42:22;12.80;78.80
48551;DHT22;34397;51.176;6.738;2023-10-19T04:44:54;12.80;78.90
48551;DHT22;34397;51.176;6.738;2023-10-19T04:47:26;12.80;78.70
48551;DHT22;34397;51.176;6.738;2023-10-19T04:50:00;12.80;78.30
48551;DHT22;34397;51.176;6.738;2023-10-19T04:52:32;12.80;78.60
48551;DHT22;34397;51.176;6.738;2023-10-19T04:55:05;12.80;78.60
48551;DHT22;34397;51.176;6.738;2023-10-19T04:57:37;12.80;78.70
48551;DHT22;34397;51.176;6.738;2023-10-19T05:00:10;12.80;78.90
48551;DHT22;34397;51.176;6.738;2023-10-19T05:02:43;12.80;79.10
48551;DHT22;34397;51.176;6.738;2023-10-19T05:05:16;12.80;79.10
48551;DHT22;34397;51.176;6.738;2023-10-19T05:07:49;12.80;79.10
48551;DHT22;34397;51.176;6.738;2023-10-19T05:10:21;12.80;78.90
48551;DHT22;34397;51.176;6.738;2023-10-19T05:12:52;12.80;79.00
48551;DHT22;34397;51.176;6.738;2023-10-19T05:15:25;12.90;79.10
48551;DHT22;34397;51.176;6.738;2023-10-19T05:17:57;12.90;78.70
48551;DHT22;34397;51.176;6.738;2023-10-19T05:20:30;12.90;78.40
48551;DHT22;34397;51.176;6.738;2023-10-19T05:23:02;12.90;78.90
48551;DHT22;34397;51.176;6.738;2023-10-19T05:25:35;12.90;79.20
48551;DHT22;34397;51.176;6.738;2023-10-19T05:28:07;12.90;79.50
48551;DHT22;34397;51.176;6.738;2023-10-19T05:30:40;12.90;79.60
48551;DHT22;34397;51.176;6.738;2023-10-19T05:33:12;12.90;79.60
48551;DHT22;34397;51.176;6.738;2023-10-19T05:35:45;12.90;79.70
48551;DHT22;34397;51.176;6.738;2023-10-19T05:38:17;12.90;79.70
48551;DHT22;34397;51.176;6.738;2023-10-19T05:40:52;13.00;79.80
48551;DHT22;34397;51.176;6.738;2023-10-19T05:43:25;12.90;79.80
48551;DHT22;34397;51.176;6.738;2023-10-19T05:45:58;12.90;79.80
48551;DHT22;34397;51.176;6.738;2023-10-19T05:48:31;13.00;80.00
48551;DHT22;34397;51.176;6.738;2023-10-19T05:51:07;13.00;79.90
48551;DHT22;34397;51.176;6.738;2023-10-19T05:53:39;13.00;80.30
48551;DHT22;34397;51.176;6.738;2023-10-19T05:56:11;13.00;80.20
48551;DHT22;34397;51.176;6.738;2023-10-19T05:58:43;13.00;80.10
48551;DHT22;34397;51.176;6.738;2023-10-19T06:01:19;13.00;80.20
48551;DHT22;34397;51.176;6.738;2023-10-19T06:03:52;13.00;80.30
48551;DHT22;34397;51.176;6.738;2023-10-19T06:06:26;13.00;80.50
48551;DHT22;34397;51.176;6.738;2023-10-19T06:08:58;13.00;80.60
48551;DHT22;34397;51.176;6.738;2023-10-19T06:11:31;13.00;80.40
48551;DHT22;34397;51.176;6.738;2023-10-19T06:14:03;13.00;80.60
48551;DHT22;34397;51.176;6.738;2023-10-19T06:16:37;13.00;80.60
48551;DHT22;34397;51.176;6.738;2023-10-19T06:19:09;13.00;80.60
48551;DHT22;34397;51.176;6.738;2023-10-19T06:21:42;13.10;80.70
48551;DHT22;34397;51.176;6.738;2023-10-19T06:24:14;13.10;80.90
48551;DHT22;34397;51.176;6.738;2023-10-19T06:26:46;13.10;80.70
48551;DHT22;34397;51.176;6.738;2023-10-19T06:29:18;13.00;80.80
48551;DHT22;34397;51.176;6.738;2023-10-19T06:31:50;13.10;81.50
48551;DHT22;34397;51.176;6.738;2023-10-19T06:34:22;13.10;81.00
48551;DHT22;34397;51.176;6.738;2023-10-19T06:36:55;13.10;81.10
48551;DHT22;34397;51.176;6.738;2023-10-19T06:39:27;13.10;81.10
48551;DHT22;34397;51.176;6.738;2023-10-19T06:41:58;13.10;81.20
48551;DHT22;34397;51.176;6.738;2023-10-19T06:44:30;13.10;81.30
48551;DHT22;34397;51.176;6.738;2023-10-19T06:47:02;13.10;81.10
48551;DHT22;34397;51.176;6.738;2023-10-19T06:49:34;13.20;81.00
48551;DHT22;34397;51.176;6.738;2023-10-19T06:52:07;13.20;81.00
48551;DHT22;34397;51.176;6.738;2023-10-19T06:54:41;13.20;81.20
48551;DHT22;34397;51.176;6.738;2023-10-19T06:57:13;13.20;81.20
48551;DHT22;34397;51.176;6.738;2023-10-19T06:59:45;13.20;81.30
48551;DHT22;34397;51.176;6.738;2023-10-19T07:02:17;13.20;81.30
48551;DHT22;34397;51.176;6.738;2023-10-19T07:04:51;13.20;81.40
48551;DHT22;34397;51.176;6.738;2023-10-19T07:07:24;13.20;81.40
48551;DHT22;34397;51.176;6.738;2023-10-19T07:09:56;13.20;81.50
48551;DHT22;34397;51.176;6.738;2023-10-19T07:12:28;13.30;81.60
48551;DHT22;34397;51.176;6.738;2023-10-19T07:15:00;13.30;81.60
48551;DHT22;34397;51.176;6.738;2023-10-19T07:17:32;13.30;82.10
48551;DHT22;34397;51.176;6.738;2023-10-19T07:20:05;13.30;81.70
48551;DHT22;34397;51.176;6.738;2023-10-19T07:22:40;13.40;81.40
48551;DHT22;34397;51.176;6.738;2023-10-19T07:25:12;13.30;81.40
48551;DHT22;34397;51.176;6.738;2023-10-19T07:27:44;13.30;81.50
48551;DHT22;34397;51.176;6.738;2023-10-19T07:30:16;13.30;81.70
48551;DHT22;34397;51.176;6.738;2023-10-19T07:32:51;13.30;81.70
48551;DHT22;34397;51.176;6.738;2023-10-19T07:35:28;13.40;81.90
48551;DHT22;34397;51.176;6.738;2023-10-19T07:38:03;13.40;82.10
48551;DHT22;34397;51.176;6.738;2023-10-19T07:40:37;13.40;82.30
48551;DHT22;34397;51.176;6.738;2023-10-19T07:43:09;13.40;82.30
48551;DHT22;34397;51.176;6.738;2023-10-19T07:45:41;13.50;82.60
48551;DHT22;34397;51.176;6.738;2023-10-19T07:48:14;13.50;82.60
48551;DHT22;34397;51.176;6.738;2023-10-19T07:50:47;13.50;82.20
48551;DHT22;34397;51.176;6.738;2023-10-19T07:53:20;13.50;81.80
48551;DHT22;34397;51.176;6.738;2023-10-19T07:55:52;13.60;82.40
48551;DHT22;34397;51.176;6.738;2023-10-19T07:58:24;13.60;82.60
48551;DHT22;34397;51.176;6.738;2023-10-19T08:00:57;13.70;82.70
48551;DHT22;34397;51.176;6.738;2023-10-19T08:03:29;13.70;82.70
48551;DHT22;34397;51.176;6.738;2023-10-19T08:06:01;13.70;82.60
48551;DHT22;34397;51.176;6.738;2023-10-19T08:08:36;13.70;82.50
48551;DHT22;34397;51.176;6.738;2023-10-19T08:11:08;13.80;82.80
48551;DHT22;34397;51.176;6.738;2023-10-19T08:13:40;13.80;82.10
48551;DHT22;34397;51.176;6.738;2023-10-19T08:16:12;13.90;82.70
48551;DHT22;34397;51.176;6.738;2023-10-19T08:18:44;13.90;83.10
48551;DHT22;34397;51.176;6.738;2023-10-19T08:21:16;14.00;83.50
48551;DHT22;34397;51.176;6.738;2023-10-19T08:23:49;14.00;83.70
48551;DHT22;34397;51.176;6.738;2023-10-19T08:26:22;14.10;84.00
48551;DHT22;34397;51.176;6.738;2023-10-19T08:28:53;14.20;83.80
48551;DHT22;34397;51.176;6.738;2023-10-19T08:31:26;14.30;83.80
48551;DHT22;34397;51.176;6.738;2023-10-19T08:33:57;14.40;83.40
48551;DHT22;34397;51.176;6.738;2023-10-19T08:36:29;14.50;83.10
48551;DHT22;34397;51.176;6.738;2023-10-19T08:39:03;14.60;82.90
48551;DHT22;34397;51.176;6.738;2023-10-19T08:41:36;14.60;82.80
48551;DHT22;34397;51.176;6.738;2023-10-19T08:44:08;14.70;82.60
48551;DHT22;34397;51.176;6.738;2023-10-19T08:46:43;14.70;82.40
48551;DHT22;34397;51.176;6.738;2023-10-19T08:49:16;14.80;82.40
48551;DHT22;34397;51.176;6.738;2023-10-19T08:51:51;14.90;82.30
48551;DHT22;34397;51.176;6.738;2023-10-19T08:54:27;14.90;82.20
48551;DHT22;34397;51.176;6.738;2023-10-19T08:56:59;15.00;81.70
48551;DHT22;34397;51.176;6.738;2023-10-19T08:59:32;15.00;81.60
48551;DHT22;34397;51.176;6.738;2023-10-19T09:02:05;15.00;81.50
48551;DHT22;34397;51.176;6.738;2023-10-19T09:04:41;15.10;82.00
48551;DHT22;34397;51.176;6.738;2023-10-19T09:07:16;15.20;82.00
48551;DHT22;34397;51.176;6.738;2023-10-19T09:09:49;15.20;81.80
48551;DHT22;34397;51.176;6.738;2023-10-19T09:12:22;15.30;82.00
48551;DHT22;34397;51.176;6.738;2023-10-19T09:14:54;15.40;82.00
48551;DHT22;34397;51.176;6.738;2023-10-19T09:17:29;15.50;81.50
48551;DHT22;34397;51.176;6.738;2023-10-19T09:20:02;15.50;81.30
48551;DHT22;34397;51.176;6.738;2023-10-19T09:22:40;15.50;81.50
48551;DHT22;34397;51.176;6.738;2023-10-19T09:25:16;15.60;81.10
48551;DHT22;34397;51.176;6.738;2023-10-19T09:27:48;15.60;81.00
48551;DHT22;34397;51.176;6.738;2023-10-19T09:30:21;15.60;80.80
48551;DHT22;34397;51.176;6.738;2023-10-19T09:32:55;15.60;80.50
48551;DHT22;34397;51.176;6.738;2023-10-19T09:35:27;15.70;80.60
48551;DHT22;34397;51.176;6.738;2023-10-19T09:38:01;15.70;80.70
48551;DHT22;34397;51.176;6.738;2023-10-19T09:40:37;15.70;80.60
48551;DHT22;34397;51.176;6.738;2023-10-19T09:43:15;15.80;80.60
48551;DHT22;34397;51.176;6.738;2023-10-19T09:45:49;15.80;80.80
48551;DHT22;34397;51.176;6.738;2023-10-19T09:48:23;15.80;81.10
48551;DHT22;34397;51.176;6.738;2023-10-19T09:50:56;15.90;81.20
48551;DHT22;34397;51.176;6.738;2023-10-19T09:53:29;15.90;81.10
48551;DHT22;34397;51.176;6.738;2023-10-19T09:56:06;16.00;80.30
48551;DHT22;34397;51.176;6.738;2023-10-19T09:58:46;16.00;80.50
48551;DHT22;34397;51.176;6.738;2023-10-19T10:01:20;16.10;80.50
48551;DHT22;34397;51.176;6.738;2023-10-19T10:03:54;16.20;80.50
48551;DHT22;34397;51.176;6.738;2023-10-19T10:06:28;16.30;80.40
48551;DHT22;34397;51.176;6.738;2023-10-19T10:09:01;16.40;79.70
48551;DHT22;34397;51.176;6.738;2023-10-19T10:11:35;16.50;79.50
48551;DHT22;34397;51.176;6.738;2023-10-19T10:14:21;16.60;79.60
48551;DHT22;34397;51.176;6.738;2023-10-19T10:16:59;16.70;78.20
48551;DHT22;34397;51.176;6.738;2023-10-19T10:19:32;16.80;78.10
48551;DHT22;34397;51.176;6.738;2023-10-19T10:22:08;16.90;78.60
48551;DHT22;34397;51.176;6.738;2023-10-19T10:24:42;17.00;77.70
48551;DHT22;34397;51.176;6.738;2023-10-19T10:27:17;17.10;76.70
48551;DHT22;34397;51.176;6.738;2023-10-19T10:29:55;17.20;76.40
48551;DHT22;34397;51.176;6.738;2023-10-19T10:32:45;17.20;76.70
48551;DHT22;34397;51.176;6.738;2023-10-19T10:35:55;17.40;76.20
48551;DHT22;34397;51.176;6.738;2023-10-19T10:38:33;17.50;74.80
48551;DHT22;34397;51.176;6.738;2023-10-19T10:41:07;17.50;75.30
48551;DHT22;34397;51.176;6.738;2023-10-19T10:43:54;17.60;75.60
48551;DHT22;34397;51.176;6.738;2023-10-19T10:46:27;17.60;73.30
48551;DHT22;34397;51.176;6.738;2023-10-19T10:49:00;17.60;74.40
48551;DHT22;34397;51.176;6.738;2023-10-19T10:51:33;17.60;73.90
48551;DHT22;34397;51.176;6.738;2023-10-19T10:54:06;17.70;74.10
48551;DHT22;34397;51.176;6.738;2023-10-19T10:56:40;17.70;73.60
48551;DHT22;34397;51.176;6.738;2023-10-19T10:59:14;17.70;73.30
48551;DHT22;34397;51.176;6.738;2023-10-19T11:01:46;17.70;73.30
48551;DHT22;34397;51.176;6.738;2023-10-19T11:04:19;17.80;74.00
48551;DHT22;34397;51.176;6.738;2023-10-19T11:06:53;17.90;74.40
48551;DHT22;34397;51.176;6.738;2023-10-19T11:09:27;18.10;74.90
48551;DHT22;34397;51.176;6.738;2023-10-19T11:11:59;18.30;71.20
48551;DHT22;34397;51.176;6.738;2023-10-19T11:14:32;18.40;72.00
48551;DHT22;34397;51.176;6.738;2023-10-19T11:17:13;18.50;71.50
48551;DHT22;34397;51.176;6.738;2023-10-19T11:19:45;18.60;70.40
48551;DHT22;34397;51.176;6.738;2023-10-19T11:22:17;18.70;70.60
48551;DHT22;34397;51.176;6.738;2023-10-19T11:24:49;18.70;70.30
48551;DHT22;34397;51.176;6.738;2023-10-19T11:27:26;18.70;70.50
48551;DHT22;34397;51.176;6.738;2023-10-19T11:30:00;18.80;70.00
48551;DHT22;34397;51.176;6.738;2023-10-19T11:32:38;18.80;70.10
48551;DHT22;34397;51.176;6.738;2023-10-19T11:35:11;18.70;69.20
48551;DHT22;34397;51.176;6.738;2023-10-19T11:37:46;18.70;70.10
48551;DHT22;34397;51.176;6.738;2023-10-19T11:40:19;18.80;70.30
48551;DHT22;34397;51.176;6.738;2023-10-19T11:42:52;18.80;70.40
48551;DHT22;34397;51.176;6.738;2023-10-19T11:45:28;18.80;70.20
48551;DHT22;34397;51.176;6.738;2023-10-19T11:48:00;18.80;69.90
48551;DHT22;34397;51.176;6.738;2023-10-19T11:50:35;18.80;70.30
48551;DHT22;34397;51.176;6.738;2023-10-19T11:53:07;18.80;69.90
48551;DHT22;34397;51.176;6.738;2023-10-19T11:55:40;18.80;67.60
48551;DHT22;34397;51.176;6.738;2023-10-19T11:58:12;18.70;68.30
48551;DHT22;34397;51.176;6.738;2023-10-19T12:00:46;18.60;68.40
48551;DHT22;34397;51.176;6.738;2023-10-19T12:03:18;18.50;67.80
48551;DHT22;34397;51.176;6.738;2023-10-19T12:05:50;18.30;68.80
48551;DHT22;34397;51.176;6.738;2023-10-19T12:08:23;18.20;69.00
48551;DHT22;34397;51.176;6.738;2023-10-19T12:10:55;18.20;69.80
48551;DHT22;34397;51.176;6.738;2023-10-19T12:13:27;18.10;69.90
48551;DHT22;34397;51.176;6.738;2023-10-19T12:16:00;18.10;70.60
48551;DHT22;34397;51.176;6.738;2023-10-19T12:18:35;18.00;70.10
48551;DHT22;34397;51.176;6.738;2023-10-19T12:21:06;18.00;70.40
48551;DHT22;34397;51.176;6.738;2023-10-19T12:23:42;17.90;70.70
48551;DHT22;34397;51.176;6.738;2023-10-19T12:26:15;17.90;71.10
48551;DHT22;34397;51.176;6.738;2023-10-19T12:28:46;17.80;71.50
48551;DHT22;34397;51.176;6.738;2023-10-19T12:31:21;17.90;71.30
48551;DHT22;34397;51.176;6.738;2023-10-19T12:33:53;17.80;71.50
48551;DHT22;34397;51.176;6.738;2023-10-19T12:36:26;17.80;71.60
48551;DHT22;34397;51.176;6.738;2023-10-19T12:39:03;17.80;71.60
48551;DHT22;34397;51.176;6.738;2023-10-19T12:41:36;17.80;71.40
48551;DHT22;34397;51.176;6.738;2023-10-19T12:44:09;17.80;71.10
48551;DHT22;34397;51.176;6.738;2023-10-19T12:46:44;17.70;70.90
48551;DHT22;34397;51.176;6.738;2023-10-19T12:49:16;17.70;71.40
48551;DHT22;34397;51.176;6.738;2023-10-19T12:51:49;17.60;71.40
48551;DHT22;34397;51.176;6.738;2023-10-19T12:54:22;17.60;72.20
48551;DHT22;34397;51.176;6.738;2023-10-19T12:56:54;17.50;71.80
48551;DHT22;34397;51.176;6.738;2023-10-19T12:59:26;17.50;72.00
48551;DHT22;34397;51.176;6.738;2023-10-19T13:01:59;17.50;71.30
48551;DHT22;34397;51.176;6.738;2023-10-19T13:04:33;17.40;71.90
48551;DHT22;34397;51.176;6.738;2023-10-19T13:07:05;17.40;72.50
48551;DHT22;34397;51.176;6.738;2023-10-19T13:09:37;17.40;72.90
48551;DHT22;34397;51.176;6.738;2023-10-19T13:12:09;17.40;73.10
48551;DHT22;34397;51.176;6.738;2023-10-19T13:14:43;17.30;73.30
48551;DHT22;34397;51.176;6.738;2023-10-19T13:17:16;17.30;72.80
48551;DHT22;34397;51.176;6.738;2023-10-19T13:19:48;17.30;73.00
48551;DHT22;34397;51.176;6.738;2023-10-19T13:22:22;17.20;73.20
48551;DHT22;34397;51.176;6.738;2023-10-19T13:24:53;17.20;73.50
48551;DHT22;34397;51.176;6.738;2023-10-19T13:27:26;17.20;73.50
48551;DHT22;34397;51.176;6.738;2023-10-19T13:29:59;17.10;74.60
48551;DHT22;34397;51.176;6.738;2023-10-19T13:32:33;17.10;75.10
48551;DHT22;34397;51.176;6.738;2023-10-19T13:35:05;17.10;75.30
48551;DHT22;34397;51.176;6.738;2023-10-19T13:37:38;17.00;75.80
48551;DHT22;34397;51.176;6.738;2023-10-19T13:40:10;17.00;76.00
48551;DHT22;34397;51.176;6.738;2023-10-19T13:42:42;17.00;76.50
48551;DHT22;34397;51.176;6.738;2023-10-19T13:45:17;17.00;76.80
48551;DHT22;34397;51.176;6.738;2023-10-19T13:47:50;17.00;76.90
48551;DHT22;34397;51.176;6.738;2023-10-19T13:50:25;17.00;77.20
48551;DHT22;34397;51.176;6.738;2023-10-19T13:52:57;17.00;77.00
48551;DHT22;34397;51.176;6.738;2023-10-19T13:55:31;17.00;77.00
48551;DHT22;34397;51.176;6.738;2023-10-19T13:58:04;17.10;77.30
48551;DHT22;34397;51.176;6.738;2023-10-19T14:00:37;17.00;77.30
48551;DHT22;34397;51.176;6.738;2023-10-19T14:03:13;17.00;77.60
48551;DHT22;34397;51.176;6.738;2023-10-19T14:05:46;17.00;77.60
48551;DHT22;34397;51.176;6.738;2023-10-19T14:08:18;17.10;77.70
48551;DHT22;34397;51.176;6.738;2023-10-19T14:10:51;17.00;77.80
48551;DHT22;34397;51.176;6.738;2023-10-19T14:13:23;17.00;77.70
48551;DHT22;34397;51.176;6.738;2023-10-19T14:15:55;17.00;78.40
48551;DHT22;34397;51.176;6.738;2023-10-19T14:18:28;17.00;77.60
48551;DHT22;34397;51.176;6.738;2023-10-19T14:21:10;17.00;78.60
48551;DHT22;34397;51.176;6.738;2023-10-19T14:23:44;16.90;78.40
48551;DHT22;34397;51.176;6.738;2023-10-19T14:26:16;16.90;78.30
48551;DHT22;34397;51.176;6.738;2023-10-19T14:28:48;16.80;77.30
48551;DHT22;34397;51.176;6.738;2023-10-19T14:31:20;16.80;77.90
48551;DHT22;34397;51.176;6.738;2023-10-19T14:33:53;16.80;78.10
48551;DHT22;34397;51.176;6.738;2023-10-19T14:36:25;16.70;78.60
48551;DHT22;34397;51.176;6.738;2023-10-19T14:38:57;16.70;79.00
48551;DHT22;34397;51.176;6.738;2023-10-19T14:41:29;16.60;79.00
48551;DHT22;34397;51.176;6.738;2023-10-19T14:44:01;16.60;79.20
48551;DHT22;34397;51.176;6.738;2023-10-19T14:46:35;16.60;79.50
48551;DHT22;34397;51.176;6.738;2023-10-19T14:49:09;16.50;79.50
48551;DHT22;34397;51.176;6.738;2023-10-19T14:51:41;16.50;79.80
48551;DHT22;34397;51.176;6.738;2023-10-19T14:54:13;16.50;79.80
48551;DHT22;34397;51.176;6.738;2023-10-19T14:56:44;16.50;79.80
48551;DHT22;34397;51.176;6.738;2023-10-19T14:59:17;16.50;79.90
48551;DHT22;34397;51.176;6.738;2023-10-19T15:01:49;16.50;80.20
48551;DHT22;34397;51.176;6.738;2023-10-19T15:04:24;16.50;80.30
48551;DHT22;34397;51.176;6.738;2023-10-19T15:06:55;16.50;80.50
48551;DHT22;34397;51.176;6.738;2023-10-19T15:09:27;16.50;80.40
48551;DHT22;34397;51.176;6.738;2023-10-19T15:12:00;16.50;80.70
48551;DHT22;34397;51.176;6.738;2023-10-19T15:14:33;16.50;80.90
48551;DHT22;34397;51.176;6.738;2023-10-19T15:17:05;16.50;81.00
48551;DHT22;34397;51.176;6.738;2023-10-19T15:19:39;16.50;81.60
48551;DHT22;34397;51.176;6.738;2023-10-19T15:22:11;16.60;82.00
48551;DHT22;34397;51.176;6.738;2023-10-19T15:24:43;16.70;81.60
48551;DHT22;34397;51.176;6.738;2023-10-19T15:27:15;16.70;80.80
48551;DHT22;34397;51.176;6.738;2023-10-19T15:29:48;16.80;80.70
48551;DHT22;34397;51.176;6.738;2023-10-19T15:32:21;16.80;81.00
48551;DHT22;34397;51.176;6.738;2023-10-19T15:34:55;16.80;80.70
48551;DHT22;34397;51.176;6.738;2023-10-19T15:37:27;16.80;80.60
48551;DHT22;34397;51.176;6.738;2023-10-19T15:39:59;16.80;80.90
48551;DHT22;34397;51.176;6.738;2023-10-19T15:42:34;16.80;81.00
48551;DHT22;34397;51.176;6.738;2023-10-19T15:45:06;16.90;80.70
48551;DHT22;34397;51.176;6.738;2023-10-19T15:47:39;16.90;79.80
48551;DHT22;34397;51.176;6.738;2023-10-19T15:50:13;16.90;79.70
48551;DHT22;34397;51.176;6.738;2023-10-19T15:52:47;16.90;80.00
48551;DHT22;34397;51.176;6.738;2023-10-19T15:55:21;16.90;79.90
48551;DHT22;34397;51.176;6.738;2023-10-19T15:57:53;17.00;79.90
48551;DHT22;34397;51.176;6.738;2023-10-19T16:00:26;17.00;80.00
48551;DHT22;34397;51.176;6.738;2023-10-19T16:03:00;17.00;80.00
48551;DHT22;34397;51.176;6.738;2023-10-19T16:05:33;17.00;79.60
48551;DHT22;34397;51.176;6.738;2023-10-19T16:08:05;17.00;79.60
48551;DHT22;34397;51.176;6.738;2023-10-19T16:10:37;16.90;79.40
48551;DHT22;34397;51.176;6.738;2023-10-19T16:13:09;16.90;79.30
48551;DHT22;34397;51.176;6.738;2023-10-19T16:15:41;16.90;79.30
48551;DHT22;34397;51.176;6.738;2023-10-19T16:18:13;16.80;79.10
48551;DHT22;34397;51.176;6.738;2023-10-19T16:20:47;16.80;79.20